Jennie Dehmer — WDB7140 — position and weather

sailwx.info

Track history (hours):
 
Tides and Currents Weather Stations Pressure Air Temp Water Temp Dewpoint Dewpoint Depression Visibility Wind Speed Wind Dir Waves Ship Positions

Jennie Dehmer

Owner: Magonlia Marine Transport Co, Vicksburg, MS. More information available from US FCC via Universal Licensing System and Coast Guard Vessel Documentation Center.

Last reported at 2018-Apr-07 15:57 UTC. Time now 2018-Jun-24 14:29 UTC.
Position N 32°34' W 091°06'.
Warning: this ship's position is months out of date.

Length 36 m; draft 8.6 m.

Type: Towing. MMSI: 366937040.

Date/timePositionNaut miles runAvg speedWind from/ knotsBaromVisibWave heightAir tempDewpointWater temp
2018-Apr-07 15:57N 32°34' W 091°06'2 4.7
2018-Apr-07 15:30N 32°31' W 091°06'3 5.7
2018-Apr-07 15:00N 32°29' W 091°07'3 5.1
2018-Apr-07 14:29N 32°27' W 091°04'3 5.6
2018-Apr-07 13:58N 32°26' W 091°01'2 4.7
2018-Apr-07 13:30N 32°24' W 090°60'2 4.6
2018-Apr-07 13:00N 32°22' W 091°00'3 5.0
2018-Apr-07 12:30N 32°21' W 090°57'2 4.7
2018-Apr-07 12:00N 32°20' W 090°55'3 5.0
2018-Apr-07 11:30N 32°22' W 090°53'1 1.8
2018-Apr-07 11:00N 32°23' W 090°53'0 0.0
2018-Apr-07 10:30N 32°23' W 090°53'0 0.0
2018-Apr-07 10:00N 32°23' W 090°53'0 0.0
2018-Apr-07 09:30N 32°23' W 090°53'0 0.0
2018-Apr-07 09:00N 32°23' W 090°53'0 0.0
2018-Apr-07 08:30N 32°23' W 090°53'0 0.0
2018-Apr-07 08:00N 32°23' W 090°53'0 0.0
2018-Apr-07 07:30N 32°23' W 090°53'0 0.0
2018-Apr-07 07:00N 32°23' W 090°53'0 0.0
2018-Apr-07 06:30N 32°23' W 090°53'0 0.3
2018-Apr-07 06:00N 32°23' W 090°53'0 0.0
2018-Apr-07 05:30N 32°23' W 090°53'0 0.1
2018-Apr-07 05:00N 32°23' W 090°53'0 0.0
2018-Apr-07 04:30N 32°23' W 090°53'1 2.5
2018-Apr-07 04:00N 32°22' W 090°53'1 2.4
2018-Apr-07 03:30N 32°21' W 090°54'0 0.4
2018-Apr-07 03:00N 32°20' W 090°54'0 0.0
2018-Apr-07 02:30N 32°20' W 090°54'0 0.0
2018-Apr-07 02:00N 32°20' W 090°54'0 0.0
2018-Apr-07 01:30N 32°20' W 090°54'0 0.0
2018-Apr-07 01:00N 32°20' W 090°54'0 0.0
2018-Apr-07 00:30N 32°20' W 090°54'0 0.0
2018-Apr-07 00:00N 32°20' W 090°54'0 0.0
2018-Apr-06 23:30N 32°20' W 090°54'0 0.0
2018-Apr-06 23:00N 32°20' W 090°54'0 0.1
2018-Apr-06 22:30N 32°20' W 090°54'1 1.4
2018-Apr-06 22:00N 32°21' W 090°53'2 3.6
2018-Apr-06 21:30N 32°23' W 090°52'3 5.7
2018-Apr-06 21:00N 32°20' W 090°54'611.2
2018-Apr-06 20:30N 32°23' W 090°60'611.5
2018-Apr-06 20:00N 32°27' W 091°05'3 4.1
2018-Apr-06 19:11N 32°30' W 091°07'0 0.0
2018-Apr-06 18:59N 32°30' W 091°07'0 0.0
2018-Apr-06 18:29N 32°30' W 091°07'0 0.0
2018-Apr-06 17:59N 32°30' W 091°07'0 0.0
2018-Apr-06 17:30N 32°30' W 091°07'0 0.0
2018-Apr-06 16:52N 32°30' W 091°07'0 0.0
2018-Apr-06 16:23N 32°30' W 091°07'0 0.0
2018-Apr-06 15:51N 32°30' W 091°07'0 0.0
2018-Apr-06 15:28N 32°30' W 091°07'0 0.0
2018-Apr-06 14:42N 32°30' W 091°07'0 0.0
2018-Apr-06 14:27N 32°30' W 091°07'0 0.0
2018-Apr-06 13:59N 32°30' W 091°07'0 0.0
2018-Apr-06 13:26N 32°30' W 091°07'0 0.0
2018-Apr-06 13:01N 32°30' W 091°07'0 0.0
2018-Apr-06 12:28N 32°30' W 091°07'0 0.0
2018-Apr-06 12:01N 32°30' W 091°07'0 0.0
2018-Apr-06 11:31N 32°30' W 091°07'0 0.0
2018-Apr-06 10:58N 32°30' W 091°07'0 0.0
2018-Apr-06 10:30N 32°30' W 091°07'0 0.0
2018-Apr-06 09:59N 32°30' W 091°07'0 0.0
2018-Apr-06 09:31N 32°30' W 091°07'0 0.0
2018-Apr-06 09:00N 32°30' W 091°07'0 0.0
2018-Apr-06 08:30N 32°30' W 091°07'0 0.0
2018-Apr-06 07:57N 32°30' W 091°07'0 0.0
2018-Apr-06 07:27N 32°30' W 091°07'0 0.0
2018-Apr-06 06:51N 32°30' W 091°07'0 0.0
2018-Apr-06 06:26N 32°30' W 091°07'0 0.0
2018-Apr-06 05:58N 32°30' W 091°07'0 0.0
2018-Apr-06 05:31N 32°30' W 091°07'0 0.0
2018-Apr-06 05:01N 32°30' W 091°07'0 0.0
2018-Apr-06 04:29N 32°30' W 091°07'0 0.0
2018-Apr-06 03:49N 32°30' W 091°07'0 0.0
2018-Apr-06 03:31N 32°30' W 091°07'0 0.0
2018-Apr-06 03:00N 32°30' W 091°07'0 0.0
2018-Apr-06 02:31N 32°30' W 091°07'0 0.0
2018-Apr-06 02:01N 32°30' W 091°07'0 0.0
2018-Apr-06 01:30N 32°30' W 091°07'0 0.0
2018-Apr-06 01:00N 32°30' W 091°07'0 0.3
2018-Apr-06 00:22N 32°29' W 091°07'2 4.3
2018-Apr-06 00:01N 32°28' W 091°06'5 5.3
2018-Apr-05 23:02N 32°26' W 091°01'0 4.9
2018-Apr-05 22:57N 32°26' W 091°00'2 4.5
2018-Apr-05 22:31N 32°24' W 090°60'2 4.1
2018-Apr-05 22:00N 32°22' W 090°60'3 5.6
2018-Apr-05 21:31N 32°21' W 090°57'2 4.8
2018-Apr-05 21:01N 32°20' W 090°54'2 4.8
2018-Apr-05 20:31N 32°22' W 090°53'1 1.2
2018-Apr-05 20:01N 32°23' W 090°53'0 0.2
2018-Apr-05 19:31N 32°23' W 090°52'2 4.9
2018-Apr-05 19:01N 32°20' W 090°54'1 1.8
2018-Apr-05 18:31N 32°21' W 090°53'2 3.3
2018-Apr-05 18:01N 32°23' W 090°53'0 0.1
2018-Apr-05 17:30N 32°23' W 090°52'1 2.6
2018-Apr-05 17:01N 32°22' W 090°53'1 2.8
2018-Apr-05 16:31N 32°20' W 090°54'3 6.5
2018-Apr-05 16:01N 32°21' W 090°57'4 8.3
2018-Apr-05 15:31N 32°25' W 090°60'611.1
2018-Apr-05 15:01N 32°27' W 091°05'610.0
2018-Apr-05 14:27N 32°33' W 091°06'510.6
2018-Apr-05 14:00N 32°37' W 091°09'8 6.2
2018-Apr-05 12:41N 32°45' W 091°09'210.6
2018-Apr-05 12:30N 32°47' W 091°10'  
Track history (hours):
 
Tides and Currents Weather Stations Pressure Air Temp Water Temp Dewpoint Dewpoint Depression Visibility Wind Speed Wind Dir Waves Ship Positions

Jennie Dehmer

Owner: Magonlia Marine Transport Co, Vicksburg, MS. More information available from US FCC via Universal Licensing System and Coast Guard Vessel Documentation Center.

Last reported at 2018-Apr-07 15:57 UTC. Time now 2018-Jun-24 14:29 UTC.
Position N 32°34' W 091°06'.
Warning: this ship's position is months out of date.

Length 36 m; draft 8.6 m.

Type: Towing. MMSI: 366937040.

Date/timePositionNaut miles runAvg speedWind from/ knotsBaromVisibWave heightAir tempDewpointWater temp
2018-Apr-07 15:57N 32°34' W 091°06'2 4.7
2018-Apr-07 15:30N 32°31' W 091°06'3 5.7
2018-Apr-07 15:00N 32°29' W 091°07'3 5.1
2018-Apr-07 14:29N 32°27' W 091°04'3 5.6
2018-Apr-07 13:58N 32°26' W 091°01'2 4.7
2018-Apr-07 13:30N 32°24' W 090°60'2 4.6
2018-Apr-07 13:00N 32°22' W 091°00'3 5.0
2018-Apr-07 12:30N 32°21' W 090°57'2 4.7
2018-Apr-07 12:00N 32°20' W 090°55'3 5.0
2018-Apr-07 11:30N 32°22' W 090°53'1 1.8
2018-Apr-07 11:00N 32°23' W 090°53'0 0.0
2018-Apr-07 10:30N 32°23' W 090°53'0 0.0
2018-Apr-07 10:00N 32°23' W 090°53'0 0.0
2018-Apr-07 09:30N 32°23' W 090°53'0 0.0
2018-Apr-07 09:00N 32°23' W 090°53'0 0.0
2018-Apr-07 08:30N 32°23' W 090°53'0 0.0
2018-Apr-07 08:00N 32°23' W 090°53'0 0.0
2018-Apr-07 07:30N 32°23' W 090°53'0 0.0
2018-Apr-07 07:00N 32°23' W 090°53'0 0.0
2018-Apr-07 06:30N 32°23' W 090°53'0 0.3
2018-Apr-07 06:00N 32°23' W 090°53'0 0.0
2018-Apr-07 05:30N 32°23' W 090°53'0 0.1
2018-Apr-07 05:00N 32°23' W 090°53'0 0.0
2018-Apr-07 04:30N 32°23' W 090°53'1 2.5
2018-Apr-07 04:00N 32°22' W 090°53'1 2.4
2018-Apr-07 03:30N 32°21' W 090°54'0 0.4
2018-Apr-07 03:00N 32°20' W 090°54'0 0.0
2018-Apr-07 02:30N 32°20' W 090°54'0 0.0
2018-Apr-07 02:00N 32°20' W 090°54'0 0.0
2018-Apr-07 01:30N 32°20' W 090°54'0 0.0
2018-Apr-07 01:00N 32°20' W 090°54'0 0.0
2018-Apr-07 00:30N 32°20' W 090°54'0 0.0
2018-Apr-07 00:00N 32°20' W 090°54'0 0.0
2018-Apr-06 23:30N 32°20' W 090°54'0 0.0
2018-Apr-06 23:00N 32°20' W 090°54'0 0.1
2018-Apr-06 22:30N 32°20' W 090°54'1 1.4
2018-Apr-06 22:00N 32°21' W 090°53'2 3.6
2018-Apr-06 21:30N 32°23' W 090°52'3 5.7
2018-Apr-06 21:00N 32°20' W 090°54'611.2
2018-Apr-06 20:30N 32°23' W 090°60'611.5
2018-Apr-06 20:00N 32°27' W 091°05'3 4.1
2018-Apr-06 19:11N 32°30' W 091°07'0 0.0
2018-Apr-06 18:59N 32°30' W 091°07'0 0.0
2018-Apr-06 18:29N 32°30' W 091°07'0 0.0
2018-Apr-06 17:59N 32°30' W 091°07'0 0.0
2018-Apr-06 17:30N 32°30' W 091°07'0 0.0
2018-Apr-06 16:52N 32°30' W 091°07'0 0.0
2018-Apr-06 16:23N 32°30' W 091°07'0 0.0
2018-Apr-06 15:51N 32°30' W 091°07'0 0.0
2018-Apr-06 15:28N 32°30' W 091°07'0 0.0
2018-Apr-06 14:42N 32°30' W 091°07'0 0.0
2018-Apr-06 14:27N 32°30' W 091°07'0 0.0
2018-Apr-06 13:59N 32°30' W 091°07'0 0.0
2018-Apr-06 13:26N 32°30' W 091°07'0 0.0
2018-Apr-06 13:01N 32°30' W 091°07'0 0.0
2018-Apr-06 12:28N 32°30' W 091°07'0 0.0
2018-Apr-06 12:01N 32°30' W 091°07'0 0.0
2018-Apr-06 11:31N 32°30' W 091°07'0 0.0
2018-Apr-06 10:58N 32°30' W 091°07'0 0.0
2018-Apr-06 10:30N 32°30' W 091°07'0 0.0
2018-Apr-06 09:59N 32°30' W 091°07'0 0.0
2018-Apr-06 09:31N 32°30' W 091°07'0 0.0
2018-Apr-06 09:00N 32°30' W 091°07'0 0.0
2018-Apr-06 08:30N 32°30' W 091°07'0 0.0
2018-Apr-06 07:57N 32°30' W 091°07'0 0.0
2018-Apr-06 07:27N 32°30' W 091°07'0 0.0
2018-Apr-06 06:51N 32°30' W 091°07'0 0.0
2018-Apr-06 06:26N 32°30' W 091°07'0 0.0
2018-Apr-06 05:58N 32°30' W 091°07'0 0.0
2018-Apr-06 05:31N 32°30' W 091°07'0 0.0
2018-Apr-06 05:01N 32°30' W 091°07'0 0.0
2018-Apr-06 04:29N 32°30' W 091°07'0 0.0
2018-Apr-06 03:49N 32°30' W 091°07'0 0.0
2018-Apr-06 03:31N 32°30' W 091°07'0 0.0
2018-Apr-06 03:00N 32°30' W 091°07'0 0.0
2018-Apr-06 02:31N 32°30' W 091°07'0 0.0
2018-Apr-06 02:01N 32°30' W 091°07'0 0.0
2018-Apr-06 01:30N 32°30' W 091°07'0 0.0
2018-Apr-06 01:00N 32°30' W 091°07'0 0.3
2018-Apr-06 00:22N 32°29' W 091°07'2 4.3
2018-Apr-06 00:01N 32°28' W 091°06'5 5.3
2018-Apr-05 23:02N 32°26' W 091°01'0 4.9
2018-Apr-05 22:57N 32°26' W 091°00'2 4.5
2018-Apr-05 22:31N 32°24' W 090°60'2 4.1
2018-Apr-05 22:00N 32°22' W 090°60'3 5.6
2018-Apr-05 21:31N 32°21' W 090°57'2 4.8
2018-Apr-05 21:01N 32°20' W 090°54'2 4.8
2018-Apr-05 20:31N 32°22' W 090°53'1 1.2
2018-Apr-05 20:01N 32°23' W 090°53'0 0.2
2018-Apr-05 19:31N 32°23' W 090°52'2 4.9
2018-Apr-05 19:01N 32°20' W 090°54'1 1.8
2018-Apr-05 18:31N 32°21' W 090°53'2 3.3
2018-Apr-05 18:01N 32°23' W 090°53'0 0.1
2018-Apr-05 17:30N 32°23' W 090°52'1 2.6
2018-Apr-05 17:01N 32°22' W 090°53'1 2.8
2018-Apr-05 16:31N 32°20' W 090°54'3 6.5
2018-Apr-05 16:01N 32°21' W 090°57'4 8.3
2018-Apr-05 15:31N 32°25' W 090°60'611.1
2018-Apr-05 15:01N 32°27' W 091°05'610.0
2018-Apr-05 14:27N 32°33' W 091°06'510.6
2018-Apr-05 14:00N 32°37' W 091°09'8 6.2
2018-Apr-05 12:41N 32°45' W 091°09'210.6
2018-Apr-05 12:30N 32°47' W 091°10'  

Dump ship's entire track history